createdAt,value
2023-03-26T00:00:16.232Z,98284.44
2023-03-26T00:04:17.868Z,98293.75
2023-03-26T00:08:19.302Z,98300.31
2023-03-26T00:12:22.084Z,98298.84
2023-03-26T00:16:24.920Z,98297.50
2023-03-26T00:20:26.973Z,98301.88
2023-03-26T00:24:28.405Z,98309.41
2023-03-26T00:28:31.173Z,98313.84
2023-03-26T00:32:32.793Z,98306.53
2023-03-26T00:36:34.254Z,98304.22
2023-03-26T00:40:35.709Z,98305.81
2023-03-26T00:44:38.492Z,98306.44
2023-03-26T00:48:45.622Z,98312.56
2023-03-26T00:52:47.540Z,98305.00
2023-03-26T00:56:49.211Z,98296.78
2023-03-26T01:00:55.514Z,98311.50
2023-03-26T01:04:58.715Z,98295.16
2023-03-26T01:09:04.681Z,98300.06
2023-03-26T01:13:06.247Z,98302.13
2023-03-26T01:17:09.089Z,98309.94
2023-03-26T01:21:10.713Z,98322.31
2023-03-26T01:25:13.550Z,98311.97
2023-03-26T01:29:20.923Z,98321.13
2023-03-26T01:33:28.251Z,98312.56
2023-03-26T01:37:39.517Z,98321.31
2023-03-26T01:41:45.463Z,98315.13
2023-03-26T01:45:49.542Z,98304.66
2023-03-26T01:49:50.984Z,98312.66
2023-03-26T01:53:54.396Z,98309.38
2023-03-26T01:58:07.803Z,98302.84
2023-03-26T02:02:12.945Z,98304.50
2023-03-26T02:06:19.664Z,98303.53
2023-03-26T02:10:26.953Z,98293.63
2023-03-26T02:14:30.688Z,98295.69
2023-03-26T02:18:32.123Z,98297.41
2023-03-26T02:22:33.593Z,98298.09
2023-03-26T02:26:36.159Z,98293.88
2023-03-26T02:30:39.045Z,98299.72
2023-03-26T02:34:42.375Z,98295.13
2023-03-26T02:38:43.821Z,98296.78
2023-03-26T02:42:45.273Z,98295.13
2023-03-26T02:46:48.116Z,98292.81
2023-03-26T02:50:49.611Z,98300.09
2023-03-26T02:54:51.053Z,98301.75
2023-03-26T02:58:52.517Z,98303.19
2023-03-26T03:02:56.926Z,98305.16
2023-03-26T03:06:58.436Z,98296.59
2023-03-26T03:11:01.737Z,98300.03
2023-03-26T03:15:03.781Z,98294.28
2023-03-26T03:19:07.053Z,98295.28
2023-03-26T03:23:08.631Z,98295.78
2023-03-26T03:27:10.171Z,98293.38
2023-03-26T03:31:11.762Z,98295.44
2023-03-26T03:35:14.650Z,98296.44
2023-03-26T03:39:16.103Z,98294.28
2023-03-26T03:43:17.563Z,98293.13
2023-03-26T03:47:19.109Z,98284.91
2023-03-26T03:51:21.929Z,98293.06
2023-03-26T03:55:23.374Z,98293.63
2023-03-26T03:59:24.907Z,98290.66
2023-03-26T04:03:33.481Z,98293.47
2023-03-26T04:07:37.529Z,98292.66
2023-03-26T04:11:38.989Z,98296.09
2023-03-26T04:15:41.340Z,98277.16
2023-03-26T04:19:42.825Z,98280.94
2023-03-26T04:23:45.584Z,98279.94
2023-03-26T04:27:48.294Z,98280.78
2023-03-26T04:31:51.085Z,98279.63
2023-03-26T04:35:52.734Z,98268.59
2023-03-26T04:39:55.716Z,98268.47
2023-03-26T04:43:57.144Z,98269.94
2023-03-26T04:47:58.762Z,98266.78
2023-03-26T04:52:00.290Z,98275.91
2023-03-26T04:56:09.245Z,98270.41
2023-03-26T05:00:15.378Z,98262.19
2023-03-26T05:04:16.934Z,98275.84
2023-03-26T05:08:18.424Z,98277.50
2023-03-26T05:12:21.198Z,98280.63
2023-03-26T05:16:22.940Z,98277.13
2023-03-26T05:20:26.758Z,98273.09
2023-03-26T05:24:28.197Z,98284.44
2023-03-26T05:28:30.996Z,98276.28
2023-03-26T05:32:32.825Z,98279.59
2023-03-26T05:36:34.457Z,98282.22
2023-03-26T05:40:35.942Z,98284.69
2023-03-26T05:44:38.709Z,98283.69
2023-03-26T05:48:40.181Z,98291.59
2023-03-26T05:52:41.652Z,98286.28
2023-03-26T05:56:43.179Z,98293.09
2023-03-26T06:00:46.004Z,98281.72
2023-03-26T06:04:47.534Z,98288.88
2023-03-26T06:09:02.362Z,98293.88
2023-03-26T06:13:04.519Z,98276.66
2023-03-26T06:17:09.588Z,98284.91
2023-03-26T06:21:11.086Z,98278.31
2023-03-26T06:25:12.545Z,98275.41
2023-03-26T06:29:14.474Z,98263.63
2023-03-26T06:33:17.704Z,98265.75
2023-03-26T06:37:19.168Z,98267.56
2023-03-26T06:41:20.769Z,98273.75
2023-03-26T06:45:22.365Z,98264.09
2023-03-26T06:49:25.228Z,98262.03
2023-03-26T06:53:26.839Z,98260.72
2023-03-26T06:57:28.398Z,98267.72
2023-03-26T07:01:29.991Z,98262.13
2023-03-26T07:05:32.926Z,98267.38
2023-03-26T07:09:34.441Z,98270.59
2023-03-26T07:13:35.984Z,98268.84
2023-03-26T07:17:37.799Z,98272.94
2023-03-26T07:21:41.261Z,98261.28
2023-03-26T07:25:43.170Z,98265.09
2023-03-26T07:29:48.899Z,98265.63
2023-03-26T07:33:58.556Z,98266.34
2023-03-26T07:38:19.102Z,98261.94
2023-03-26T07:42:34.383Z,98271.34
2023-03-26T07:46:36.318Z,98264.41
2023-03-26T07:50:38.538Z,98266.06
2023-03-26T07:54:41.918Z,98265.56
2023-03-26T07:59:03.860Z,98260.69
2023-03-26T08:03:16.797Z,98257.94
2023-03-26T08:07:26.724Z,98256.84
2023-03-26T08:11:40.291Z,98252.47
2023-03-26T08:15:46.467Z,98253.75
2023-03-26T08:19:54.942Z,98257.88
2023-03-26T08:24:04.968Z,98253.84
2023-03-26T08:28:22.027Z,98257.94
2023-03-26T08:32:23.901Z,98252.59
2023-03-26T08:36:25.398Z,98253.38
2023-03-26T08:40:55.280Z,98249.97
2023-03-26T08:45:27.152Z,98245.59
2023-03-26T08:49:56.404Z,98250.44
2023-03-26T08:54:36.404Z,98240.16
2023-03-26T08:59:11.021Z,98237.97
2023-03-26T09:04:00.144Z,98240.69
2023-03-26T09:08:30.032Z,98232.47
2023-03-26T09:12:59.311Z,98236.88
2023-03-26T09:17:19.680Z,98233.06
2023-03-26T09:21:53.992Z,98224.94
2023-03-26T09:26:29.592Z,98221.97
2023-03-26T09:30:57.947Z,98221.69
2023-03-26T09:35:45.151Z,98219.56
2023-03-26T09:40:01.427Z,98209.16
2023-03-26T09:44:32.227Z,98202.38
2023-03-26T09:48:56.109Z,98200.44
2023-03-26T09:53:07.292Z,98198.25
2023-03-26T09:57:16.820Z,98192.47
2023-03-26T10:01:30.355Z,98196.53
2023-03-26T10:06:10.440Z,98183.28
2023-03-26T10:10:20.991Z,98183.09
2023-03-26T10:14:29.457Z,98183.13
2023-03-26T10:18:41.769Z,98178.84
2023-03-26T10:22:56.441Z,98162.38
2023-03-26T10:27:10.994Z,98154.50
2023-03-26T10:31:32.852Z,98155.88
2023-03-26T10:35:47.075Z,98134.38
2023-03-26T10:40:15.280Z,98122.38
2023-03-26T10:44:53.495Z,98121.78
2023-03-26T10:49:33.455Z,98116.59
2023-03-26T10:53:43.213Z,98107.97
2023-03-26T10:57:48.997Z,98096.00
2023-03-26T11:02:00.307Z,98100.13
2023-03-26T11:06:16.544Z,98082.63
2023-03-26T11:10:28.055Z,98081.22
2023-03-26T11:14:40.995Z,98066.00
2023-03-26T11:18:50.636Z,98076.38
2023-03-26T11:23:07.745Z,98071.41
2023-03-26T11:27:18.974Z,98070.59
2023-03-26T11:31:32.925Z,98067.78
2023-03-26T11:35:41.060Z,98065.25
2023-03-26T11:39:49.608Z,98064.59
2023-03-26T11:43:56.330Z,98059.88
2023-03-26T11:48:04.175Z,98049.97
2023-03-26T11:52:05.747Z,98052.25
2023-03-26T11:56:13.692Z,98054.75
2023-03-26T12:00:19.076Z,98050.84
2023-03-26T12:04:28.680Z,98051.00
2023-03-26T12:08:34.554Z,98041.53
2023-03-26T12:12:39.144Z,98040.25
2023-03-26T12:16:57.308Z,98032.44
2023-03-26T12:21:04.437Z,98037.81
2023-03-26T12:25:18.047Z,98034.94
2023-03-26T12:29:19.454Z,98030.28
2023-03-26T12:33:26.587Z,98026.66
2023-03-26T12:37:35.179Z,98024.22
2023-03-26T12:44:42.354Z,98019.66
2023-03-26T12:46:03.858Z,98027.16
2023-03-26T12:50:34.347Z,98025.63
2023-03-26T12:54:46.794Z,98032.50
2023-03-26T12:59:06.816Z,98033.69
2023-03-26T13:03:22.609Z,98029.78
2023-03-26T13:07:35.960Z,98017.47
2023-03-26T13:11:47.656Z,98014.84
2023-03-26T13:15:52.776Z,98011.59
2023-03-26T13:20:03.919Z,98002.25
2023-03-26T13:24:17.589Z,98002.19
2023-03-26T13:28:33.538Z,97994.47
2023-03-26T13:32:48.550Z,97993.22
2023-03-26T13:37:02.976Z,97979.72
2023-03-26T13:41:14.466Z,97977.78
2023-03-26T13:45:33.766Z,97981.63
2023-03-26T13:49:40.866Z,97967.91
2023-03-26T13:53:47.487Z,97966.28
2023-03-26T13:57:58.275Z,97971.94
2023-03-26T14:02:05.085Z,97964.84
2023-03-26T14:06:12.836Z,97970.94
2023-03-26T14:10:19.118Z,97973.13
2023-03-26T14:14:28.673Z,97966.13
2023-03-26T14:18:37.393Z,97967.25
2023-03-26T14:22:51.905Z,97966.75
2023-03-26T14:27:17.667Z,97974.06
2023-03-26T14:31:29.086Z,97966.47
2023-03-26T14:35:36.734Z,97976.63
2023-03-26T14:40:08.096Z,97979.63
2023-03-26T14:44:47.845Z,97983.66
2023-03-26T14:49:06.229Z,97984.97
2023-03-26T14:53:15.861Z,97978.38
2023-03-26T14:57:52.066Z,97983.53
2023-03-26T15:02:34.026Z,97975.56
2023-03-26T15:07:15.676Z,97983.19
2023-03-26T15:11:26.842Z,97972.81
2023-03-26T15:15:53.955Z,97968.44
2023-03-26T15:20:25.014Z,97973.88
2023-03-26T15:24:56.584Z,97969.50
2023-03-26T15:29:27.820Z,97965.09
2023-03-26T15:33:57.654Z,97972.19
2023-03-26T15:38:32.605Z,97971.00
2023-03-26T15:42:45.163Z,97969.31
2023-03-26T15:46:57.830Z,97962.66
2023-03-26T15:51:10.422Z,97971.13
2023-03-26T15:55:25.652Z,97973.00
2023-03-26T15:59:40.495Z,97967.69
2023-03-26T16:03:51.685Z,97973.97
2023-03-26T16:08:03.725Z,97965.25
2023-03-26T16:12:28.490Z,97975.59
2023-03-26T16:16:52.476Z,97971.72
2023-03-26T16:21:02.786Z,97968.44
2023-03-26T16:25:27.988Z,97964.63
2023-03-26T16:29:32.117Z,97977.59
2023-03-26T16:33:37.108Z,97978.88
2023-03-26T16:37:42.153Z,97983.44
2023-03-26T16:42:18.698Z,97982.53
2023-03-26T16:46:31.190Z,97984.41
2023-03-26T16:50:43.871Z,97983.22
2023-03-26T16:54:53.840Z,97982.13
2023-03-26T16:58:59.616Z,97987.56
2023-03-26T17:03:11.454Z,97990.53
2023-03-26T17:07:17.686Z,97986.47
2023-03-26T17:11:25.828Z,97986.13
2023-03-26T17:15:34.237Z,97989.31
2023-03-26T17:19:41.667Z,97989.53
2023-03-26T17:23:58.750Z,97992.97
2023-03-26T17:28:17.529Z,97997.59
2023-03-26T17:32:19.223Z,97991.06
2023-03-26T17:36:29.669Z,97996.16
2023-03-26T17:40:45.316Z,98002.41
2023-03-26T17:44:50.577Z,97997.97
2023-03-26T17:48:59.367Z,98000.66
2023-03-26T17:53:04.412Z,98000.88
2023-03-26T17:57:12.408Z,98006.31
2023-03-26T18:01:22.654Z,98008.81
2023-03-26T18:05:27.906Z,98008.22
2023-03-26T18:09:49.810Z,98005.75
2023-03-26T18:14:14.673Z,98012.63
2023-03-26T18:18:22.104Z,98015.44
2023-03-26T18:22:26.585Z,98014.00
2023-03-26T18:26:35.506Z,98018.06
2023-03-26T18:30:48.547Z,98015.88
2023-03-26T18:34:57.043Z,98012.56
2023-03-26T18:38:59.249Z,98008.72
2023-03-26T18:43:00.833Z,98007.91
2023-03-26T18:47:05.686Z,98014.69
2023-03-26T18:51:08.838Z,98004.28
2023-03-26T18:55:12.736Z,97993.44
2023-03-26T18:59:23.328Z,98003.66
2023-03-26T19:03:25.678Z,97998.75
2023-03-26T19:07:29.951Z,97994.66
2023-03-26T19:11:32.064Z,98001.38
2023-03-26T19:15:35.693Z,97996.94
2023-03-26T19:19:37.744Z,97994.75
2023-03-26T19:23:41.613Z,97987.59
2023-03-26T19:27:43.191Z,97986.47
2023-03-26T19:31:50.084Z,97989.75
2023-03-26T19:35:59.962Z,97977.25
2023-03-26T19:40:13.788Z,97977.72
2023-03-26T19:51:18.597Z,97964.22
2023-03-26T19:53:15.315Z,97967.75
2023-03-26T19:57:20.405Z,97965.31
2023-03-26T20:01:24.172Z,97950.72
2023-03-26T20:05:29.097Z,97951.28
2023-03-26T20:09:30.512Z,97941.50
2023-03-26T20:13:33.270Z,97946.94
2023-03-26T20:17:34.829Z,97942.59
2023-03-26T20:21:36.445Z,97940.34
2023-03-26T20:25:43.115Z,97935.75
2023-03-26T20:29:45.845Z,97932.81
2023-03-26T20:33:48.057Z,97931.09
2023-03-26T20:37:49.564Z,97924.06
2023-03-26T20:41:52.614Z,97918.63
2023-03-26T20:45:55.595Z,97922.13
2023-03-26T20:49:57.139Z,97918.63
2023-03-26T20:53:58.585Z,97914.00
2023-03-26T20:58:00.019Z,97919.16
2023-03-26T21:02:02.832Z,97908.84
2023-03-26T21:06:06.872Z,97911.75
2023-03-26T21:10:11.727Z,97914.25
2023-03-26T21:14:18.485Z,97912.81
2023-03-26T21:18:21.963Z,97916.09
2023-03-26T21:22:32.302Z,97913.97
2023-03-26T21:26:42.051Z,97916.16
2023-03-26T21:30:44.310Z,97915.59
2023-03-26T21:34:55.412Z,97907.34
2023-03-26T21:39:00.413Z,97910.28
2023-03-26T21:43:02.386Z,97925.28
2023-03-26T21:47:04.267Z,97928.81
2023-03-26T21:51:10.318Z,97932.53
2023-03-26T21:55:12.369Z,97938.47
2023-03-26T21:59:22.942Z,97937.66
2023-03-26T22:03:30.068Z,97938.38
2023-03-26T22:07:42.828Z,97947.72
2023-03-26T22:11:44.273Z,97950.56
2023-03-26T22:15:45.830Z,97960.44
2023-03-26T22:19:47.268Z,97963.34
2023-03-26T22:23:50.584Z,97968.84
2023-03-26T22:27:52.144Z,97967.31
2023-03-26T22:31:53.596Z,97965.22
2023-03-26T22:35:55.943Z,97971.00
2023-03-26T22:39:58.823Z,97958.69
2023-03-26T22:44:09.433Z,97962.13
2023-03-26T22:48:20.459Z,97969.88
2023-03-26T22:52:21.880Z,97967.09
2023-03-26T22:56:24.652Z,97970.88
2023-03-26T23:00:26.370Z,97962.47
2023-03-26T23:04:31.236Z,97966.59
2023-03-26T23:08:35.030Z,97972.84
2023-03-26T23:12:38.156Z,97970.41
2023-03-26T23:16:39.644Z,97972.50
2023-03-26T23:20:41.115Z,97976.94
2023-03-26T23:24:42.566Z,97974.31
2023-03-26T23:28:45.601Z,97970.00
2023-03-26T23:32:47.131Z,97973.75
2023-03-26T23:36:48.711Z,97980.31
2023-03-26T23:40:57.246Z,97983.03
2023-03-26T23:45:00.507Z,97981.06
2023-03-26T23:49:02.490Z,97990.09
2023-03-26T23:53:04.647Z,97990.25
2023-03-26T23:57:06.072Z,97993.66
